Time;durP1;ratioP1;P1;durP2;ratioP2;P2;SDS_P1;SDS_P2;PMS_P1;PMS_P2;Temp;Humidity;BMP_temperature;BMP_pressure;BME280_temperature;BME280_humidity;BME280_pressure;Samples;Min_cycle;Max_cycle;Signal;HPM_P1;HPM_P2
2021/04/23 00:01:07;;;;;;;23.57;11.60;;;;;;;3.39;64.44;99369.07;113695;1199;64470;-84
2021/04/23 00:03:46;;;;;;;28.73;12.63;;;;;;;3.42;64.52;99372.49;113934;1200;64483;-84
2021/04/23 00:06:30;;;;;;;29.83;13.97;;;;;;;3.43;64.52;99379.47;113963;1199;64401;-83
2021/04/23 00:09:05;;;;;;;24.70;12.40;;;;;;;3.46;64.33;99368.83;113970;1200;64406;-86
2021/04/23 00:11:38;;;;;;;21.35;10.55;;;;;;;3.49;64.66;99374.00;114057;1200;64407;-85
2021/04/23 00:14:05;;;;;;;19.43;10.73;;;;;;;3.55;64.85;99378.20;113686;1198;64471;-84
2021/04/23 00:16:32;;;;;;;19.73;10.30;;;;;;;3.62;64.67;99377.10;114001;1200;64382;-86
2021/04/23 00:18:59;;;;;;;17.97;8.87;;;;;;;3.67;64.98;99374.33;113920;1200;64372;-85
2021/04/23 00:21:26;;;;;;;24.47;11.17;;;;;;;3.71;64.88;99373.30;113757;1200;64375;-82
2021/04/23 00:23:53;;;;;;;20.20;10.47;;;;;;;3.77;64.83;99369.63;113652;1199;64496;-84
2021/04/23 00:26:20;;;;;;;25.60;12.50;;;;;;;3.79;64.59;99371.30;113683;1200;64548;-84
2021/04/23 00:28:47;;;;;;;18.17;10.53;;;;;;;3.84;64.80;99376.39;113675;1200;64414;-83
2021/04/23 00:31:14;;;;;;;20.65;10.75;;;;;;;3.87;64.98;99371.90;113651;1200;64413;-84
2021/04/23 00:33:41;;;;;;;21.33;9.67;;;;;;;3.89;65.02;99377.09;113923;1199;64367;-83
2021/04/23 00:36:09;;;;;;;20.03;11.40;;;;;;;3.90;65.08;99374.42;113944;1199;64308;-83
2021/04/23 00:38:37;;;;;;;25.57;11.97;;;;;;;3.91;65.23;99376.14;113898;1200;64375;-83
2021/04/23 00:44:35;;;;;;;21.80;10.67;;;;;;;3.89;65.54;99379.73;114325;1199;64329;-84
2021/04/23 00:47:03;;;;;;;20.87;9.93;;;;;;;3.89;65.70;99374.46;114223;1200;64362;-84
2021/04/23 00:49:30;;;;;;;20.97;10.30;;;;;;;3.87;65.68;99381.55;113693;1200;64346;-83
2021/04/23 00:52:00;;;;;;;24.50;11.23;;;;;;;3.87;65.98;99381.55;113897;1200;64481;-84
2021/04/23 00:54:28;;;;;;;27.67;12.83;;;;;;;3.85;65.90;99378.13;113962;1199;64324;-84
2021/04/23 00:56:56;;;;;;;28.80;13.73;;;;;;;3.81;66.15;99377.35;113708;1200;64414;-84
2021/04/23 00:59:23;;;;;;;26.80;14.10;;;;;;;3.76;65.90;99387.19;113922;1199;64378;-84
2021/04/23 01:01:59;;;;;;;21.83;11.70;;;;;;;3.69;66.26;99388.33;113676;1200;64311;-84
2021/04/23 01:04:28;;;;;;;24.70;11.95;;;;;;;3.63;66.55;99389.36;113918;1200;64452;-83
2021/04/23 01:06:56;;;;;;;26.27;12.20;;;;;;;3.57;66.68;99391.34;113978;1199;64387;-83
2021/04/23 01:09:25;;;;;;;25.00;13.73;;;;;;;3.48;66.98;99388.09;113893;1200;64477;-84
2021/04/23 01:11:53;;;;;;;24.10;13.98;;;;;;;3.44;66.84;99390.87;113733;1200;64375;-84
2021/04/23 01:14:20;;;;;;;24.97;11.53;;;;;;;3.39;67.09;99391.00;113725;1200;64417;-85
2021/04/23 01:16:49;;;;;;;19.77;11.37;;;;;;;3.36;67.43;99396.38;113701;1200;64615;-86
2021/04/23 01:19:23;;;;;;;21.97;11.60;;;;;;;3.32;67.71;99397.39;113783;1199;64458;-85
2021/04/23 01:21:51;;;;;;;20.77;12.17;;;;;;;3.29;67.83;99395.72;113905;1200;64363;-85
2021/04/23 01:24:19;;;;;;;22.00;12.70;;;;;;;3.28;68.11;99403.66;113806;1200;64339;-85
2021/04/23 01:26:52;;;;;;;26.70;13.13;;;;;;;3.24;68.10;99394.14;113928;1200;64359;-85
2021/04/23 01:29:20;;;;;;;22.87;12.70;;;;;;;3.19;68.39;99401.31;113743;1199;64513;-84
2021/04/23 01:31:51;;;;;;;23.00;13.17;;;;;;;3.13;68.37;99401.48;113898;1200;64371;-84
2021/04/23 01:34:24;;;;;;;20.87;12.47;;;;;;;3.05;68.64;99399.08;113808;1200;64465;-85
2021/04/23 01:36:53;;;;;;;22.47;13.27;;;;;;;3.00;68.91;99396.60;114576;1199;64291;-84
2021/04/23 01:39:24;;;;;;;25.77;14.63;;;;;;;2.95;68.92;99398.51;114223;1199;64413;-87
2021/04/23 01:41:52;;;;;;;19.00;12.00;;;;;;;2.90;69.16;99404.78;114554;1199;64419;-85
2021/04/23 01:44:20;;;;;;;23.47;12.67;;;;;;;2.88;69.37;99401.36;114304;1199;64353;-86
2021/04/23 01:46:47;;;;;;;21.30;12.80;;;;;;;2.87;69.43;99405.77;113785;1200;64382;-85
2021/04/23 01:49:17;;;;;;;22.43;12.93;;;;;;;2.83;69.63;99402.34;113713;1200;64446;-88
2021/04/23 01:51:48;;;;;;;19.90;12.60;;;;;;;2.82;69.90;99405.04;113739;1199;64420;-86
2021/04/23 01:54:17;;;;;;;25.25;12.20;;;;;;;2.81;69.84;99403.30;113744;1199;64403;-84
2021/04/23 01:56:45;;;;;;;22.75;12.50;;;;;;;2.77;70.07;99405.16;113705;1200;64400;-83
2021/04/23 01:59:13;;;;;;;19.05;11.45;;;;;;;2.75;70.27;99408.74;113948;1199;64391;-84
2021/04/23 02:01:41;;;;;;;19.23;11.20;;;;;;;2.72;70.40;99409.69;114005;1199;64454;-84
2021/04/23 02:04:10;;;;;;;21.57;11.93;;;;;;;2.70;70.56;99408.86;113990;1198;64349;-84
2021/04/23 02:06:37;;;;;;;20.57;11.37;;;;;;;2.71;70.71;99412.35;113931;1198;64396;-84
2021/04/23 02:09:08;;;;;;;22.67;11.90;;;;;;;2.71;70.79;99412.35;113718;1200;64586;-84
2021/04/23 02:11:40;;;;;;;19.27;10.83;;;;;;;2.71;70.89;99417.62;113952;1200;64369;-83
2021/04/23 02:14:07;;;;;;;18.77;10.60;;;;;;;2.70;71.20;99410.64;113960;1199;64381;-84
2021/04/23 02:16:34;;;;;;;20.93;11.13;;;;;;;2.72;71.15;99414.09;113721;1200;64388;-84
2021/04/23 02:19:01;;;;;;;19.87;12.17;;;;;;;2.70;71.27;99421.16;113884;1200;64535;-84
2021/04/23 02:21:28;;;;;;;22.60;13.63;;;;;;;2.67;71.54;99418.63;113778;1200;64436;-85
2021/04/23 02:23:55;;;;;;;20.13;14.03;;;;;;;2.63;71.49;99421.34;113886;1200;64381;-85
2021/04/23 02:26:23;;;;;;;17.63;11.47;;;;;;;2.62;71.74;99426.64;113765;1199;64407;-85
2021/04/23 02:28:53;;;;;;;19.33;11.53;;;;;;;2.58;71.72;99423.23;113757;1199;64307;-86
2021/04/23 02:31:24;;;;;;;;;;;;;;;2.55;71.94;99422.44;113689;1205;64483;-84
2021/04/23 02:33:55;;;;;;;25.17;11.50;;;;;;;2.53;72.10;99424.28;113684;1198;64394;-83
2021/04/23 02:36:23;;;;;;;20.63;9.77;;;;;;;2.54;72.32;99420.73;113902;1200;64383;-83
2021/04/23 02:38:51;;;;;;;18.60;9.60;;;;;;;2.53;72.16;99421.65;113933;1200;64228;-83
2021/04/23 02:41:18;;;;;;;20.27;12.20;;;;;;;2.51;72.25;99420.81;113932;1199;64404;-83
2021/04/23 02:43:50;;;;;;;23.60;13.00;;;;;;;2.49;72.44;99419.99;113900;1200;64519;-83
2021/04/23 02:46:18;;;;;;;22.57;12.37;;;;;;;2.46;72.46;99422.70;113932;1200;64333;-83
2021/04/23 02:48:45;;;;;;;25.60;12.60;;;;;;;2.40;72.73;99415.85;113889;1200;64340;-83
2021/04/23 02:51:16;;;;;;;23.95;14.65;;;;;;;2.35;72.87;99421.23;113724;1200;64400;-83
2021/04/23 02:53:43;;;;;;;21.77;12.57;;;;;;;2.33;72.61;99419.54;113705;1199;64445;-83
2021/04/23 02:56:13;;;;;;;25.87;12.47;;;;;;;2.30;73.04;99417.86;113891;1200;64792;-83
2021/04/23 02:58:40;;;;;;;28.45;12.65;;;;;;;2.29;73.14;99417.88;113677;1200;64407;-83
2021/04/23 03:01:20;;;;;;;17.83;11.10;;;;;;;2.29;73.21;99424.03;113912;1200;64384;-84
2021/04/23 03:03:47;;;;;;;18.48;11.25;;;;;;;2.28;73.12;99418.80;113759;1198;64494;-83
2021/04/23 03:06:15;;;;;;;19.03;11.70;;;;;;;2.30;73.61;99424.88;113908;1200;64382;-82
2021/04/23 03:08:43;;;;;;;21.83;10.53;;;;;;;2.29;73.48;99424.03;113914;1200;64372;-83
2021/04/23 03:11:13;;;;;;;20.33;9.77;;;;;;;2.30;73.60;99414.37;113692;1199;64333;-82
2021/04/23 03:13:43;;;;;;;18.97;10.10;;;;;;;2.30;73.85;99427.52;113978;1199;64375;-83
2021/04/23 03:16:11;;;;;;;21.83;11.20;;;;;;;2.30;73.87;99427.52;113775;1200;64369;-83
2021/04/23 03:18:40;;;;;;;20.87;10.63;;;;;;;2.30;73.87;99427.52;113977;1198;64375;-83
2021/04/23 03:21:08;;;;;;;18.40;10.60;;;;;;;2.30;73.90;99422.26;113880;1200;64449;-83
2021/04/23 03:23:36;;;;;;;17.37;9.47;;;;;;;2.32;74.05;99423.09;113611;1200;64433;-83
2021/04/23 03:26:06;;;;;;;20.97;9.93;;;;;;;2.33;73.99;99423.03;113980;1200;64404;-83
2021/04/23 03:28:33;;;;;;;18.70;8.80;;;;;;;2.34;74.26;99426.52;113969;1199;64375;-83
2021/04/23 03:31:00;;;;;;;22.20;13.07;;;;;;;2.35;73.99;99431.75;113920;1199;64353;-83
2021/04/23 03:33:28;;;;;;;18.87;11.60;;;;;;;2.38;74.18;99430.80;113696;1198;64535;-83
2021/04/23 03:35:56;;;;;;;21.93;10.37;;;;;;;2.37;74.46;99432.58;113751;1200;64372;-83
2021/04/23 03:38:26;;;;;;;16.60;9.10;;;;;;;2.36;74.38;99432.60;113916;1200;64385;-82
2021/04/23 03:40:54;;;;;;;20.05;10.65;;;;;;;2.36;74.50;99432.60;113919;1199;64358;-83
2021/04/23 03:43:21;;;;;;;18.40;10.57;;;;;;;2.36;74.50;99440.50;113913;1198;64385;-83
2021/04/23 03:45:48;;;;;;;17.40;10.83;;;;;;;2.36;74.45;99437.86;113612;1198;64519;-82
2021/04/23 03:48:15;;;;;;;16.90;10.20;;;;;;;2.40;74.23;99436.89;113677;1198;64378;-83
2021/04/23 03:50:43;;;;;;;20.23;10.23;;;;;;;2.44;74.33;99433.26;113699;1199;64368;-83
2021/04/23 03:53:12;;;;;;;17.37;10.10;;;;;;;2.53;74.33;99438.29;113715;1200;64464;-83
2021/04/23 03:55:45;;;;;;;15.90;10.00;;;;;;;2.57;74.26;99445.17;113938;1199;64359;-83
2021/04/23 03:58:13;;;;;;;17.90;10.75;;;;;;;2.62;74.29;99445.91;113931;1199;64519;-83
2021/04/23 04:00:44;;;;;;;19.17;10.53;;;;;;;2.83;74.04;99446.23;113756;1199;64455;-83
2021/04/23 04:03:13;;;;;;;19.97;11.37;;;;;;;3.36;73.59;99446.42;113908;1200;64349;-83
2021/04/23 04:05:41;;;;;;;18.97;10.83;;;;;;;3.86;72.76;99437.84;113894;1199;64356;-83
2021/04/23 04:08:07;;;;;;;19.03;9.97;;;;;;;4.32;72.35;99446.88;113913;1199;64498;-84
2021/04/23 04:10:35;;;;;;;19.10;11.75;;;;;;;4.71;71.52;99431.39;113718;1200;64497;-85
2021/04/23 04:13:02;;;;;;;20.60;12.17;;;;;;;5.11;70.89;99435.23;113977;1199;64356;-85
2021/04/23 04:15:29;;;;;;;21.37;12.33;;;;;;;5.26;70.47;99433.77;113873;1199;64384;-84
2021/04/23 04:17:57;;;;;;;18.53;11.40;;;;;;;4.91;70.69;99441.25;113735;1200;64464;-84
2021/04/23 04:20:26;;;;;;;21.20;12.27;;;;;;;4.69;70.78;99443.81;113880;1199;64372;-84
2021/04/23 04:22:53;;;;;;;23.90;12.63;;;;;;;4.50;70.84;99448.00;113968;1199;64372;-82
2021/04/23 04:25:40;;;;;;;19.37;12.83;;;;;;;4.41;71.05;99449.19;114050;1199;64471;-83
2021/04/23 04:28:08;;;;;;;21.50;11.95;;;;;;;4.42;70.92;99456.17;113741;1199;64420;-83
2021/04/23 04:30:38;;;;;;;18.57;11.23;;;;;;;4.77;70.67;99464.66;114185;1200;64382;-82
2021/04/23 04:33:06;;;;;;;20.27;10.80;;;;;;;5.50;69.51;99458.39;113993;1200;64330;-86
2021/04/23 04:35:34;;;;;;;21.50;10.87;;;;;;;5.98;68.57;99468.00;113777;1199;64496;-85
2021/04/23 04:38:01;;;;;;;17.10;10.40;;;;;;;5.63;68.91;99461.42;113727;1199;64864;-85
2021/04/23 04:40:29;;;;;;;18.20;9.17;;;;;;;5.34;69.27;99462.55;113703;1199;64372;-86
2021/04/23 04:42:56;;;;;;;16.23;10.40;;;;;;;5.15;69.38;99462.39;113652;1199;64378;-86
2021/04/23 04:45:26;;;;;;;16.37;10.07;;;;;;;5.04;69.53;99468.07;113675;1198;64382;-86
2021/04/23 04:47:54;;;;;;;17.73;10.48;;;;;;;4.98;69.52;99469.16;113733;1200;64304;-86
2021/04/23 04:50:28;;;;;;;16.20;10.07;;;;;;;4.90;69.55;99473.86;113959;1199;64400;-84
2021/04/23 04:52:58;;;;;;;18.30;10.47;;;;;;;5.39;68.99;99466.73;113689;1200;64417;-85
2021/04/23 04:55:31;;;;;;;19.00;10.40;;;;;;;6.26;67.82;99466.85;113984;1199;64400;-85
2021/04/23 04:58:00;;;;;;;12.10;8.23;;;;;;;6.84;66.59;99467.00;113977;1199;64403;-85
2021/04/23 05:00:28;;;;;;;13.35;9.00;;;;;;;7.40;65.94;99466.24;113903;1200;64430;-85
2021/04/23 05:02:56;;;;;;;15.80;10.80;;;;;;;8.06;65.19;99462.23;113717;1199;64470;-85
2021/04/23 05:05:24;;;;;;;17.33;10.10;;;;;;;8.05;64.58;99464.01;113968;1200;64449;-85
2021/04/23 05:07:51;;;;;;;15.87;9.10;;;;;;;7.63;65.12;99474.89;113954;1198;64301;-85
2021/04/23 05:10:18;;;;;;;14.85;8.00;;;;;;;7.78;64.86;99474.17;113941;1198;64688;-85
2021/04/23 05:12:44;;;;;;;17.47;9.13;;;;;;;8.09;64.16;99470.91;113723;1199;64471;-85
2021/04/23 05:15:12;;;;;;;13.83;8.73;;;;;;;8.13;63.68;99476.91;113700;1198;64302;-84
2021/04/23 05:17:39;;;;;;;15.00;8.90;;;;;;;8.26;63.92;99483.33;113894;1199;64366;-85
2021/04/23 05:20:08;;;;;;;16.43;9.13;;;;;;;8.10;64.09;99488.53;113895;1200;64484;-87
2021/04/23 05:22:36;;;;;;;17.90;10.10;;;;;;;7.85;63.68;99491.53;113708;1200;64468;-89
2021/04/23 05:25:05;;;;;;;17.90;10.00;;;;;;;7.66;64.09;99495.97;113790;1200;64455;-84
2021/04/23 05:27:32;;;;;;;18.13;11.00;;;;;;;7.59;64.37;99497.21;113722;1198;64387;-85
2021/04/23 05:29:59;;;;;;;15.57;11.20;;;;;;;7.41;64.05;99496.27;113756;1198;64400;-85
2021/04/23 05:32:26;;;;;;;20.10;10.80;;;;;;;7.29;64.20;99505.63;114065;1199;64414;-86
2021/04/23 05:34:53;;;;;;;15.70;11.37;;;;;;;7.17;64.57;99499.09;113704;1197;64350;-87
2021/04/23 05:37:21;;;;;;;20.97;12.27;;;;;;;7.11;64.75;99504.69;113923;1199;64487;-86
2021/04/23 05:39:49;;;;;;;18.70;12.13;;;;;;;7.06;65.15;99498.73;114038;1200;64369;-86
2021/04/23 05:42:16;;;;;;;21.35;12.60;;;;;;;7.03;65.05;99505.02;113951;1200;64368;-86
2021/04/23 05:44:44;;;;;;;18.30;12.35;;;;;;;6.93;64.94;99509.00;113990;1200;64448;-86
2021/04/23 05:47:11;;;;;;;19.70;12.33;;;;;;;6.88;65.21;99507.48;114009;1199;64375;-86
2021/04/23 05:49:38;;;;;;;19.03;12.10;;;;;;;6.84;65.03;99514.69;113931;1198;64388;-86
2021/04/23 05:52:08;;;;;;;14.97;10.40;;;;;;;6.84;64.88;99509.39;114023;1200;64474;-88
2021/04/23 05:54:36;;;;;;;18.33;10.47;;;;;;;6.79;64.91;99517.55;114072;1199;64413;-87
2021/04/23 05:57:04;;;;;;;17.13;10.43;;;;;;;6.67;64.87;99518.07;113844;1199;64407;-87
2021/04/23 05:59:30;;;;;;;15.83;9.70;;;;;;;6.58;65.04;99519.33;113740;1200;64831;-87
2021/04/23 06:01:58;;;;;;;16.40;11.27;;;;;;;6.44;65.22;99520.82;113707;1199;64432;-86
2021/04/23 06:04:26;;;;;;;16.60;9.90;;;;;;;6.36;65.75;99523.78;113990;1199;64439;-85
2021/04/23 06:06:53;;;;;;;17.23;9.83;;;;;;;6.34;65.76;99523.83;113943;1200;64404;-86
2021/04/23 06:09:19;;;;;;;15.35;8.80;;;;;;;6.44;65.59;99526.12;113677;1200;64423;-86
2021/04/23 06:11:46;;;;;;;15.00;9.20;;;;;;;6.55;65.84;99529.17;113696;1200;64952;-86
2021/04/23 06:14:14;;;;;;;13.70;8.85;;;;;;;6.61;66.04;99518.34;113967;1199;64490;-88
2021/04/23 06:16:41;;;;;;;12.43;8.13;;;;;;;6.67;65.66;99518.07;114060;1198;64425;-86
2021/04/23 06:19:07;;;;;;;10.95;7.20;;;;;;;6.69;66.14;99526.82;114409;1199;64452;-90
2021/04/23 06:21:34;;;;;;;14.70;8.30;;;;;;;6.85;66.16;99528.82;113969;1200;64326;-88
2021/04/23 06:24:01;;;;;;;13.63;7.50;;;;;;;7.04;65.93;99522.63;113805;1200;64458;-84
2021/04/23 06:26:28;;;;;;;17.43;8.63;;;;;;;7.17;65.38;99524.75;113716;1198;64494;-85
2021/04/23 06:28:54;;;;;;;14.10;8.63;;;;;;;7.18;65.43;99523.81;113716;1198;64439;-85
2021/04/23 06:31:21;;;;;;;16.27;8.73;;;;;;;7.33;65.17;99512.52;113967;1200;64349;-85
2021/04/23 06:33:51;;;;;;;11.47;8.90;;;;;;;7.50;64.52;99521.48;113872;1200;64310;-85
2021/04/23 06:36:20;;;;;;;14.43;9.43;;;;;;;7.66;64.10;99520.73;113934;1200;64378;-85
2021/04/23 06:38:47;;;;;;;16.57;10.07;;;;;;;7.84;63.66;99528.73;113954;1198;64468;-85
2021/04/23 06:41:14;;;;;;;13.63;9.03;;;;;;;8.03;63.10;99524.30;113654;1200;64378;-85
2021/04/23 06:43:43;;;;;;;15.77;9.03;;;;;;;8.20;63.39;99525.27;114001;1198;64850;-85
2021/04/23 06:46:12;;;;;;;16.53;9.87;;;;;;;8.18;62.86;99524.48;113768;1198;64337;-84
2021/04/23 06:48:39;;;;;;;15.20;10.33;;;;;;;7.89;62.95;99524.94;113912;1200;64409;-85
2021/04/23 06:51:05;;;;;;;17.07;11.33;;;;;;;7.96;63.08;99524.66;114004;1196;64372;-84
2021/04/23 06:53:33;;;;;;;15.03;11.13;;;;;;;8.01;63.18;99518.20;114062;1196;64430;-83
2021/04/23 06:56:02;;;;;;;19.97;11.60;;;;;;;8.36;63.25;99521.77;113893;1196;64554;-84
2021/04/23 06:58:29;;;;;;;20.07;12.13;;;;;;;8.62;62.47;99522.31;114005;1196;64432;-84
2021/04/23 07:00:56;;;;;;;19.45;12.50;;;;;;;8.78;61.95;99517.93;113944;1197;64873;-85
2021/04/23 07:03:23;;;;;;;17.63;12.27;;;;;;;8.89;61.86;99519.18;113917;1196;64423;-85
2021/04/23 07:05:51;;;;;;;17.83;13.07;;;;;;;9.12;61.37;99502.89;113874;1196;64793;-85
2021/04/23 07:08:17;;;;;;;15.50;10.63;;;;;;;9.22;60.90;99506.78;113917;1197;64350;-86
2021/04/23 07:10:44;;;;;;;15.50;11.80;;;;;;;9.01;60.81;99513.23;114045;1196;64423;-84
2021/04/23 07:13:13;;;;;;;17.70;10.67;;;;;;;8.90;60.33;99505.83;114025;1196;64378;-87
2021/04/23 07:15:41;;;;;;;15.07;10.43;;;;;;;8.68;60.63;99511.36;114177;1196;64474;-89
2021/04/23 07:18:07;;;;;;;14.57;10.13;;;;;;;8.57;61.16;99511.05;114763;1196;64388;-87
2021/04/23 07:20:35;;;;;;;12.50;8.60;;;;;;;8.61;61.71;99514.41;114106;1196;64451;-81
2021/04/23 07:23:03;;;;;;;14.35;9.95;;;;;;;8.66;61.47;99512.38;114285;1196;64375;-92
2021/04/23 07:25:30;;;;;;;14.20;8.67;;;;;;;8.86;61.31;99519.34;114049;1200;64375;-86
2021/04/23 07:27:59;;;;;;;15.07;8.83;;;;;;;9.08;61.24;99513.77;114046;1196;64877;-89
2021/04/23 07:30:28;;;;;;;15.70;9.10;;;;;;;9.14;60.77;99518.78;113917;1196;64455;-85
2021/04/23 07:32:57;;;;;;;14.90;8.75;;;;;;;8.99;60.19;99520.42;114115;1196;64509;-85
2021/04/23 07:35:25;;;;;;;13.10;9.20;;;;;;;8.95;60.46;99519.73;114468;1196;64298;-85
2021/04/23 07:37:54;;;;;;;17.00;10.10;;;;;;;9.06;60.07;99516.52;114091;1196;64413;-84
2021/04/23 07:40:21;;;;;;;16.80;10.03;;;;;;;8.96;59.37;99513.47;113941;1197;64298;-85
2021/04/23 07:42:48;;;;;;;13.17;9.60;;;;;;;8.80;59.47;99525.84;114291;1196;64380;-90
2021/04/23 07:45:16;;;;;;;13.70;9.07;;;;;;;8.76;58.73;99527.77;114915;1198;64395;-94
2021/04/23 07:47:44;;;;;;;13.90;9.63;;;;;;;8.62;57.81;99530.28;114143;1199;64393;-88
2021/04/23 07:50:18;;;;;;;11.83;8.87;;;;;;;8.77;58.76;99518.88;114039;1196;64378;-88
2021/04/23 07:52:45;;;;;;;13.90;7.25;;;;;;;9.20;58.16;99527.27;113948;1196;64522;-82
2021/04/23 07:55:13;;;;;;;11.15;8.35;;;;;;;9.56;57.14;99526.26;113973;1200;64381;-91
2021/04/23 07:57:41;;;;;;;12.00;8.53;;;;;;;9.85;57.53;99529.13;113768;1196;64393;-85
2021/04/23 08:00:10;;;;;;;11.70;8.33;;;;;;;9.46;57.87;99548.98;113899;1196;64359;-87
2021/04/23 08:08:03;;;;;;;11.97;8.10;;;;;;;8.42;59.89;99549.86;115471;1165;64529;-86
2021/04/23 08:10:31;;;;;;;10.67;8.43;;;;;;;8.31;59.73;99550.35;113736;1200;64544;-86
2021/04/23 08:12:59;;;;;;;10.60;8.55;;;;;;;8.57;59.91;99534.96;114013;1198;64462;-86
2021/04/23 08:15:27;;;;;;;12.03;7.73;;;;;;;8.96;57.42;99531.23;113903;1198;64353;-89
2021/04/23 08:17:56;;;;;;;11.60;8.50;;;;;;;9.28;58.54;99532.19;114112;1199;64599;-89
2021/04/23 08:20:23;;;;;;;10.90;7.90;;;;;;;9.64;59.10;99531.17;113767;1199;64493;-84
2021/04/23 08:22:50;;;;;;;10.85;8.30;;;;;;;9.75;57.46;99527.91;113828;1200;64349;-84
2021/04/23 08:25:18;;;;;;;11.10;7.85;;;;;;;9.84;57.73;99533.56;113741;1200;64353;-84
2021/04/23 08:27:46;;;;;;;8.25;6.80;;;;;;;9.94;56.35;99527.75;113778;1199;64407;-83
2021/04/23 08:30:14;;;;;;;9.57;7.63;;;;;;;9.78;55.77;99531.26;114104;1199;64477;-86
2021/04/23 08:32:43;;;;;;;10.70;7.15;;;;;;;9.70;56.10;99532.63;114645;1199;64442;-85
2021/04/23 08:35:12;;;;;;;10.93;7.27;;;;;;;9.65;53.80;99541.71;114034;1199;64355;-83
2021/04/23 08:37:40;;;;;;;11.75;8.20;;;;;;;9.72;53.47;99531.61;113901;1199;64298;-86
2021/04/23 08:40:10;;;;;;;9.87;7.23;;;;;;;10.04;53.35;99532.47;113751;1199;64372;-87
2021/04/23 08:42:36;;;;;;;;;;;;;;;10.10;52.74;99529.45;113928;1204;64446;-86
2021/04/23 08:45:07;;;;;;;9.83;6.97;;;;;;;10.01;53.52;99529.13;114270;1200;64324;-89
2021/04/23 08:47:38;;;;;;;8.30;7.27;;;;;;;9.88;51.81;99528.95;113916;1199;64356;-86
2021/04/23 08:50:06;;;;;;;11.70;7.95;;;;;;;9.85;53.16;99526.47;113769;1199;64407;-87
2021/04/23 08:52:34;;;;;;;13.10;8.57;;;;;;;9.93;53.34;99516.25;113942;1198;64459;-87
2021/04/23 08:55:05;;;;;;;13.97;7.73;;;;;;;9.99;52.85;99518.55;113940;1200;64375;-85
2021/04/23 08:57:32;;;;;;;11.33;7.17;;;;;;;10.24;53.17;99512.71;113874;1200;64426;-85
2021/04/23 08:59:59;;;;;;;11.70;7.40;;;;;;;10.51;53.39;99512.95;113888;1199;64398;-86
2021/04/23 09:02:26;;;;;;;11.10;8.10;;;;;;;10.61;52.31;99505.28;113879;1200;64468;-87
2021/04/23 09:04:54;;;;;;;10.07;7.40;;;;;;;10.72;51.24;99493.98;113814;1200;64430;-89
2021/04/23 09:07:21;;;;;;;13.20;7.65;;;;;;;10.48;51.34;99502.47;113805;1200;64378;-84
2021/04/23 09:09:48;;;;;;;10.67;7.17;;;;;;;10.30;51.99;99503.54;113757;1199;64506;-83
2021/04/23 09:12:24;;;;;;;11.00;6.97;;;;;;;10.55;51.71;99502.95;113778;1199;64445;-82
2021/04/23 09:14:57;;;;;;;8.17;6.60;;;;;;;11.09;50.65;99500.61;113787;1199;64363;-84
2021/04/23 09:17:26;;;;;;;12.33;7.77;;;;;;;11.47;49.50;99502.72;113881;1199;64410;-84
2021/04/23 09:19:54;;;;;;;7.13;6.07;;;;;;;11.42;48.22;99494.14;113865;1198;64381;-86
2021/04/23 09:22:30;;;;;;;6.25;5.60;;;;;;;11.07;47.99;99502.51;113845;1199;64474;-87
2021/04/23 09:25:10;;;;;;;7.20;5.20;;;;;;;10.52;48.21;99513.80;113856;1199;64877;-87
2021/04/23 09:27:41;;;;;;;9.50;5.47;;;;;;;10.01;48.53;99524.66;113868;1199;64455;-87
2021/04/23 09:30:11;;;;;;;9.40;6.00;;;;;;;9.50;50.31;99536.36;113788;1199;64356;-85
2021/04/23 09:32:41;;;;;;;7.97;5.43;;;;;;;9.00;52.95;99546.95;113959;1199;64426;-85
2021/04/23 09:35:15;;;;;;;11.90;6.00;;;;;;;8.64;54.83;99562.95;113839;1199;64812;-86
2021/04/23 09:37:42;;;;;;;9.15;7.05;;;;;;;8.45;55.91;99556.81;113873;1198;64407;-95
2021/04/23 09:40:14;;;;;;;11.40;7.63;;;;;;;8.42;56.22;99554.31;115382;1199;64334;-90
2021/04/23 09:43:04;;;;;;;10.80;7.63;;;;;;;8.77;56.64;99539.29;114101;1199;64340;-82
2021/04/23 09:45:35;;;;;;;;;;;;;;;9.18;57.46;99550.42;113639;1206;64337;-81
2021/04/23 09:48:03;;;;;;;13.65;8.55;;;;;;;9.63;56.98;99532.94;113979;1200;64298;-82
2021/04/23 09:50:36;;;;;;;8.80;7.10;;;;;;;10.07;58.14;99536.77;113815;1200;64330;-82
2021/04/23 09:53:04;;;;;;;8.90;7.60;;;;;;;10.38;56.80;99541.25;113682;1199;64841;-81
2021/04/23 09:55:33;;;;;;;8.10;6.50;;;;;;;10.46;56.28;99531.01;114359;1199;64404;-83
2021/04/23 09:58:08;;;;;;;7.70;6.83;;;;;;;10.58;56.41;99524.09;114810;1199;64308;-82
2021/04/23 10:00:40;;;;;;;10.53;7.20;;;;;;;10.57;55.22;99530.38;114034;1199;64404;-85
2021/04/23 10:14:30;;;;;;;13.53;10.23;;;;;;;10.38;56.47;99535.07;113802;1200;64519;-84
2021/04/23 10:16:58;;;;;;;10.17;8.37;;;;;;;10.04;56.29;99535.14;114929;1199;64372;-95
2021/04/23 10:19:26;;;;;;;11.70;8.17;;;;;;;9.91;57.19;99542.09;114717;1199;64397;-91
2021/04/23 10:21:54;;;;;;;10.73;8.00;;;;;;;9.98;57.66;99537.27;115917;1198;64973;-94
2021/04/23 10:24:22;;;;;;;8.70;7.17;;;;;;;10.08;57.52;99534.03;115506;1199;64506;-93
2021/04/23 10:26:52;;;;;;;8.97;7.73;;;;;;;9.95;57.36;99534.78;115888;1198;64375;-93
2021/04/23 10:32:00;;;;;;;7.77;6.90;;;;;;;9.72;58.69;99531.61;111474;1162;64266;-91
2021/04/23 10:34:27;;;;;;;10.60;7.03;;;;;;;9.77;58.71;99526.89;114212;1199;64419;-90
2021/04/23 10:36:54;;;;;;;8.70;6.57;;;;;;;9.87;59.08;99525.44;114680;1198;64349;-93
2021/04/23 10:39:21;;;;;;;10.03;6.53;;;;;;;10.02;58.68;99528.17;114580;1199;64420;-90
2021/04/23 10:41:48;;;;;;;7.83;6.33;;;;;;;10.08;59.14;99525.16;115538;1198;64436;-94
2021/04/23 10:44:17;;;;;;;8.33;7.50;;;;;;;10.39;59.52;99515.46;115690;1199;64413;-94
2021/04/23 10:46:50;;;;;;;9.33;6.80;;;;;;;10.83;58.93;99512.84;114986;1199;64301;-84
2021/04/23 10:49:17;;;;;;;7.77;6.57;;;;;;;11.27;56.97;99522.64;113742;1198;64409;-84
2021/04/23 10:51:45;;;;;;;11.33;7.20;;;;;;;11.21;57.07;99523.85;113693;1200;64388;-83
2021/04/23 10:54:15;;;;;;;9.00;6.60;;;;;;;11.07;56.39;99523.84;113834;1199;64449;-85
2021/04/23 10:56:55;;;;;;;8.33;5.43;;;;;;;10.73;55.87;99533.00;113791;1198;64471;-84
2021/04/23 10:59:26;;;;;;;9.58;7.05;;;;;;;10.12;56.18;99548.02;113783;1199;64375;-84
2021/04/23 11:02:16;;;;;;;7.87;5.10;;;;;;;9.40;60.22;99584.75;113892;1198;64343;-81
2021/04/23 11:04:54;;;;;;;10.98;8.68;;;;;;;7.95;63.34;99595.44;113649;1199;64932;-79
2021/04/23 11:07:21;;;;;;;11.70;8.90;;;;;;;7.29;64.89;99576.34;113683;1200;64548;-84
2021/04/23 11:09:59;;;;;;;11.27;8.13;;;;;;;7.19;65.28;99570.61;113716;1200;64387;-82
2021/04/23 11:12:27;;;;;;;11.57;9.37;;;;;;;7.29;65.26;99568.39;113810;1199;64407;-85
2021/04/23 11:15:15;;;;;;;10.27;8.87;;;;;;;7.60;65.32;99562.58;113713;1200;64430;-87
2021/04/23 11:17:44;;;;;;;12.03;8.83;;;;;;;8.01;65.28;99565.97;115716;1199;64436;-93
2021/04/23 11:26:02;;;;;;;7.87;6.67;;;;;;;9.49;65.79;99547.95;115833;1165;64371;-88
2021/04/23 11:28:29;;;;;;;10.93;8.30;;;;;;;9.85;65.45;99537.97;114671;1199;64378;-88
2021/04/23 11:36:38;;;;;;;11.55;6.75;;;;;;;10.23;62.65;99534.09;108868;1165;63249;-87
2021/04/23 11:39:13;;;;;;;9.10;6.43;;;;;;;10.36;64.01;99536.95;113688;1198;64375;-80
2021/04/23 11:42:10;;;;;;;10.03;7.97;;;;;;;10.76;64.29;99531.00;113732;1199;64381;-77
2021/04/23 11:44:46;;;;;;;8.30;6.03;;;;;;;10.94;62.98;99537.06;113644;1198;64300;-77
2021/04/23 11:47:32;;;;;;;7.77;5.97;;;;;;;10.90;61.76;99527.55;113599;1200;64350;-78
2021/04/23 11:50:08;;;;;;;8.90;6.87;;;;;;;10.96;63.05;99520.98;113556;1200;64324;-77
2021/04/23 11:52:37;;;;;;;9.10;5.30;;;;;;;11.08;62.35;99520.22;113592;1199;64474;-78
2021/04/23 11:55:08;;;;;;;6.55;5.10;;;;;;;11.06;60.97;99518.59;113574;1200;64860;-78
2021/04/23 11:57:35;;;;;;;6.00;4.95;;;;;;;11.08;58.73;99517.55;113558;1200;64503;-78
2021/04/23 12:00:13;;;;;;;7.30;5.43;;;;;;;10.90;58.69;99518.66;113545;1200;64397;-78
2021/04/23 12:02:42;;;;;;;7.57;5.77;;;;;;;10.62;59.35;99514.13;113581;1199;64824;-78
2021/04/23 12:05:29;;;;;;;6.10;5.30;;;;;;;10.40;60.11;99514.50;113642;1200;64342;-79